DW9120 Weather Reports


time (UTC)temp
C
wind
direction
speed
KPH
gust
KPH
rain 1hr
cm
rain 24hr
cm
rain mn
cm
humidity
%
barometer
mb
20190424163117 10 233 9.7 24.1 0.00 0.10 0.05 23 993.8
20190424161630 10 182 14.5 24.1 0.00 0.10 0.05 20 993.9
20190424160050 10 248 8.0 30.6 0.00 0.10 0.05 53 994.1
20190424154634 10 212 11.3 40.2 0.00 0.10 0.05 65 994.2
20190424153108 11 238 11.3 22.5 0.00 0.10 0.05 69 993.8
20190424151603 12 219 17.7 29.0 0.00 0.10 0.05 67 993.7
20190424150142 12 250 16.1 49.9 0.00 0.10 0.05 72 993.5
20190424144558 13 224 14.5 35.4 0.00 0.10 0.05 72 992.5
20190424143058 13 232 19.3 41.8 0.03 0.10 0.05 73 992.0
20190424141513 15 270 17.7 37.0 0.03 0.10 0.05 71 992.1
20190424140002 13 198 14.5 38.6 0.03 0.10 0.05 29 991.8
20190424134744 13 198 27.4 43.5 0.03 0.10 0.05 74 992.0
20190424133157 16 227 20.9 33.8 0.00 0.08 0.03 72 991.4
20190424131634 15 234 17.7 45.1 0.00 0.08 0.03 73 990.8
20190424130237 15 233 24.1 38.6 0.00 0.08 0.03 72 990.7
20190424124604 14 203 29.0 41.8 0.00 0.08 0.03 72 990.3
20190424123100 14 223 25.7 48.3 0.00 0.08 0.03 69 990.7
20190424121557 15 224 24.1 43.5 0.00 0.08 0.03 68 991.2
20190424120119 15 247 19.3 40.2 0.00 0.08 0.03 68 990.8
20190424114619 14 249 16.1 35.4 0.00 0.08 0.03 72 990.6
20190424113032 15 243 27.4 45.1 0.00 0.08 0.03 72 990.5
20190424111535 14 190 14.5 29.0 0.00 0.08 0.03 68 990.6
20190424110025 13 220 0.0 17.7 0.00 0.08 0.03 57 990.9
20190424104505 12 209 0.0 14.5 0.00 0.08 0.03 60 990.9
20190424103243 12 207 0.0 4.8 0.00 0.08 0.03 62 991.1
20190424101648 11 168 0.0 0.0 0.00 0.08 0.03 65 991.2
20190424100206 11 168 0.0 1.6 0.00 0.08 0.03 58 991.2
20190424094706 11 181 8.0 19.3 0.00 0.08 0.03 57 991.2
20190424093207 11 212 11.3 19.3 0.00 0.08 0.03 66 991.3
20190424090109 11 171 4.8 12.9 0.00 0.08 0.03 70 991.3
20190424084547 11 171 1.6 6.4 0.00 0.08 0.03 72 991.7
20190424083038 11 207 0.0 1.6 0.00 0.08 0.03 72 991.9
20190424081541 10 188 1.6 22.5 0.00 0.08 0.03 71 992.0
20190424080127 10 221 4.8 17.7 0.00 0.08 0.03 71 992.1
20190424074524 10 210 8.0 16.1 0.00 0.08 0.03 70 992.3
20190424073008 9 214 9.7 19.3 0.00 0.08 0.03 72 992.4
20190424071635 9 208 8.0 16.1 0.00 0.08 0.03 72 992.4
20190424070147 8 212 16.1 27.4 0.00 0.08 0.03 72 992.4
20190424064745 8 226 14.5 24.1 0.00 0.08 0.03 69 992.4
20190424063109 8 236 11.3 22.5 0.03 0.08 0.03 64 992.4
20190424061808 8 212 9.7 22.5 0.03 0.08 0.03 65 992.5
20190424060119 7 196 8.0 22.5 0.03 0.08 0.03 64 992.6
20190424054605 7 211 8.0 20.9 0.03 0.08 0.03 65 992.8
20190424053058 8 211 9.7 24.1 0.00 0.05 0.00 65 993.0
20190424051527 7 199 12.9 29.0 0.00 0.05 0.00 61 993.2
20190424050030 7 210 9.7 16.1 0.00 0.05 0.00 58 993.5
20190424044556 7 223 8.0 20.9 0.00 0.05 0.00 57 993.8
20190424043026 8 217 4.8 14.5 0.00 0.05 0.00 64 994.0
20190424041533 8 205 8.0 14.5 0.00 0.05 0.00 67 994.2
20190424040002 8 182 4.8 12.9 0.00 0.05 0.00 66 994.4
20190424034735 7 196 6.4 14.5 0.00 0.05 0.00 66 994.7
20190424033122 7 205 0.0 8.0 0.00 0.05 0.00 67 994.9
20190424031655 8 218 4.8 9.7 0.00 0.05 0.00 66 995.1
20190424030200 8 223 9.7 17.7 0.00 0.05 0.00 67 995.2
20190424024618 8 234 16.1 27.4 0.00 0.05 0.00 69 995.3
20190424023124 8 223 12.9 25.7 0.00 0.05 0.00 67 995.1
20190424021636 8 229 9.7 30.6 0.00 0.05 0.00 62 995.2
20190424020115 7 143 8.0 19.3 0.00 0.05 0.00 49 995.4
20190424014543 7 209 0.0 6.4 0.00 0.05 0.00 25 995.7
20190424013036 6 213 1.6 11.3 0.00 0.05 0.00 11 996.0
20190424011523 6 197 3.2 8.0 0.00 0.05 0.00 1 996.3
20190424010012 6 219 4.8 19.3 0.00 0.08 0.00 1 996.6
20190424004504 5 215 12.9 25.7 0.00 0.08 0.00 1 996.8
20190424003209 5 206 6.4 9.7 0.00 0.08 0.00 1 997.0
20190424001640 4 203 4.8 14.5 0.00 0.08 0.00 1 997.2
20190424000122 4 209 0.0 0.0 0.00 0.08 0.00 1 997.2
20190423234750 4 246 0.0 0.0 0.00 0.08 0.00 1 997.3
20190423233121 4 207 0.0 0.0 0.00 0.08 0.00 1 997.3
20190423231630 4 211 0.0 0.0 0.00 0.08 0.00 1 997.4
20190423230047 4 70 0.0 0.0 0.00 0.08 0.00 1 997.4
20190423224543 5 70 0.0 0.0 0.00 0.08 0.00 1 997.4
20190423223051 5 120 0.0 0.0 0.00 0.08 0.00 1 997.4
20190423221536 5 227 0.0 0.0 0.00 0.08 0.00 1 997.5
20190423220024 5 227 0.0 0.0 0.00 0.08 0.08 1 997.5
20190423214523 5 227 0.0 0.0 0.00 0.08 0.08 7 997.4
20190423213012 6 227 0.0 0.0 0.00 0.08 0.08 7 997.4
20190423211502 6 227 0.0 0.0 0.00 0.08 0.08 12 997.4
20190423210136 6 227 0.0 0.0 0.00 0.08 0.08 16 997.3
20190423204646 7 227 0.0 0.0 0.00 0.10 0.08 23 997.3
20190423203137 7 227 0.0 0.0 0.00 0.10 0.08 31 997.2
20190423201657 8 227 0.0 0.0 0.00 0.10 0.08 43 997.0
20190423200123 9 237 0.0 0.0 0.00 0.10 0.08 52 996.9
20190423194617 10 180 0.0 0.0 0.03 0.10 0.08 60 996.7
20190423193116 10 243 0.0 0.0 0.03 0.10 0.08 63 996.5
20190423191632 11 243 0.0 0.0 0.03 0.10 0.08 68 996.2
20190423190100 11 243 0.0 0.0 0.03 0.10 0.08 72 996.1
20190423184628 11 243 0.0 0.0 0.00 0.08 0.05 73 995.8
20190423183110 11 221 0.0 0.0 0.00 0.08 0.05 73 995.6
20190423181600 11 221 0.0 9.7 0.00 0.08 0.05 72 995.6
20190423180042 11 225 3.2 17.7 0.00 0.08 0.05 73 995.7
20190423174629 11 230 6.4 9.7 0.00 0.08 0.05 72 995.8
20190423173052 11 223 1.6 9.7 0.03 0.08 0.05 73 995.6
20190423171554 11 241 3.2 17.7 0.03 0.08 0.05 73 995.5
20190423170035 11 228 11.3 16.1 0.05 0.08 0.05 73 995.5
20190423164539 11 205 6.4 16.1 0.05 0.08 0.05 72 995.2